createdAt,value
2017-08-11T00:01:12.806Z,82.42
2017-08-11T00:03:40.301Z,82.89
2017-08-11T00:06:07.790Z,83.15
2017-08-11T00:08:35.252Z,83.27
2017-08-11T00:11:02.743Z,83.16
2017-08-11T00:13:30.205Z,82.89
2017-08-11T00:15:57.677Z,82.26
2017-08-11T00:18:25.137Z,81.37
2017-08-11T00:20:52.635Z,80.97
2017-08-11T00:23:20.230Z,81.09
2017-08-11T00:25:47.687Z,81.06
2017-08-11T00:28:15.138Z,80.86
2017-08-11T00:30:42.621Z,81.42
2017-08-11T00:33:10.070Z,82.02
2017-08-11T00:35:37.566Z,81.63
2017-08-11T00:38:05.017Z,81.24
2017-08-11T00:40:32.497Z,81.18
2017-08-11T00:42:59.969Z,81.16
2017-08-11T00:45:27.480Z,81.18
2017-08-11T00:47:54.968Z,81.07
2017-08-11T00:50:22.450Z,81.65
2017-08-11T00:52:49.941Z,81.95
2017-08-11T00:55:17.385Z,81.88
2017-08-11T00:57:44.861Z,82.31
2017-08-11T01:00:12.310Z,82.93
2017-08-11T01:02:39.801Z,83.19
2017-08-11T01:05:07.268Z,83.09
2017-08-11T01:07:34.770Z,82.50
2017-08-11T01:10:02.267Z,82.25
2017-08-11T01:12:29.763Z,82.51
2017-08-11T01:14:57.234Z,82.81
2017-08-11T01:17:24.721Z,82.25
2017-08-11T01:19:52.185Z,82.45
2017-08-11T01:22:19.679Z,82.62
2017-08-11T01:24:47.169Z,81.93
2017-08-11T01:27:14.637Z,81.07
2017-08-11T01:29:42.125Z,80.50
2017-08-11T01:32:09.572Z,80.76
2017-08-11T01:34:37.048Z,80.35
2017-08-11T01:37:04.549Z,79.61
2017-08-11T01:39:32.032Z,79.36
2017-08-11T01:41:59.498Z,78.71
2017-08-11T01:44:26.974Z,79.00
2017-08-11T01:46:54.430Z,78.74
2017-08-11T01:49:21.947Z,78.30
2017-08-11T01:51:50.353Z,78.53
2017-08-11T01:54:17.806Z,79.29
2017-08-11T01:56:45.295Z,79.91
2017-08-11T01:59:12.758Z,79.85
2017-08-11T02:01:40.240Z,79.42
2017-08-11T02:04:07.684Z,79.03
2017-08-11T02:06:35.153Z,78.62
2017-08-11T02:09:02.623Z,78.43
2017-08-11T02:11:30.139Z,78.24
2017-08-11T02:13:57.607Z,78.10
2017-08-11T02:16:25.080Z,78.16
2017-08-11T02:18:52.532Z,77.98
2017-08-11T02:21:20.026Z,77.96
2017-08-11T02:23:47.529Z,78.18
2017-08-11T02:26:14.986Z,77.91
2017-08-11T02:28:42.476Z,77.80
2017-08-11T02:31:09.953Z,77.69
2017-08-11T02:33:37.425Z,77.17
2017-08-11T02:36:04.918Z,76.81
2017-08-11T02:38:32.395Z,77.50
2017-08-11T02:40:59.878Z,78.42
2017-08-11T02:43:27.363Z,79.06
2017-08-11T02:45:54.829Z,79.42
2017-08-11T02:48:22.264Z,79.75
2017-08-11T02:50:49.747Z,79.62
2017-08-11T02:53:17.189Z,79.81
2017-08-11T02:55:44.685Z,80.23
2017-08-11T02:58:12.147Z,80.61
2017-08-11T03:00:39.643Z,81.11
2017-08-11T03:03:07.093Z,81.47
2017-08-11T03:05:34.596Z,81.75
2017-08-11T03:08:02.040Z,80.97
2017-08-11T03:10:29.517Z,79.72
2017-08-11T03:12:56.971Z,79.82
2017-08-11T03:15:24.569Z,79.69
2017-08-11T03:17:52.017Z,79.65
2017-08-11T03:20:19.465Z,79.76
2017-08-11T03:22:46.937Z,79.68
2017-08-11T03:25:14.463Z,79.71
2017-08-11T03:27:41.948Z,79.31
2017-08-11T03:30:09.441Z,79.56
2017-08-11T03:32:36.936Z,79.50
2017-08-11T03:35:04.431Z,79.71
2017-08-11T03:37:31.908Z,79.47
2017-08-11T03:39:59.403Z,79.36
2017-08-11T03:42:26.858Z,79.46
2017-08-11T03:44:54.355Z,79.42
2017-08-11T03:47:21.813Z,79.61
2017-08-11T03:49:49.294Z,79.79
2017-08-11T03:52:16.757Z,79.48
2017-08-11T03:54:44.221Z,79.21
2017-08-11T03:57:11.685Z,79.96
2017-08-11T03:59:39.166Z,80.46
2017-08-11T04:02:06.618Z,81.23
2017-08-11T04:04:34.104Z,81.55
2017-08-11T04:07:01.554Z,81.87
2017-08-11T04:09:29.091Z,82.02
2017-08-11T04:11:56.577Z,81.46
2017-08-11T04:14:24.038Z,80.70
2017-08-11T04:16:51.513Z,80.19
2017-08-11T04:19:18.998Z,79.86
2017-08-11T04:21:46.474Z,79.60
2017-08-11T04:24:13.935Z,79.39
2017-08-11T04:26:41.415Z,79.34
2017-08-11T04:29:08.911Z,79.66
2017-08-11T04:31:36.390Z,79.83
2017-08-11T04:34:03.866Z,79.54
2017-08-11T04:36:31.327Z,79.41
2017-08-11T04:38:58.802Z,79.67
2017-08-11T04:41:26.266Z,80.05
2017-08-11T04:43:53.754Z,80.71
2017-08-11T04:46:21.235Z,80.46
2017-08-11T04:48:48.725Z,80.50
2017-08-11T04:51:16.212Z,80.45
2017-08-11T04:53:43.686Z,80.12
2017-08-11T04:56:11.145Z,79.90
2017-08-11T04:58:38.642Z,80.08
2017-08-11T05:01:06.138Z,79.96
2017-08-11T05:03:33.591Z,79.43
2017-08-11T05:06:01.090Z,79.31
2017-08-11T05:08:28.558Z,79.20
2017-08-11T05:10:56.044Z,78.69
2017-08-11T05:13:23.518Z,78.17
2017-08-11T05:15:51.113Z,77.93
2017-08-11T05:18:18.578Z,77.98
2017-08-11T05:20:46.041Z,78.56
2017-08-11T05:23:13.529Z,78.75
2017-08-11T05:25:40.993Z,79.17
2017-08-11T05:28:09.692Z,79.67
2017-08-11T05:30:37.161Z,80.04
2017-08-11T05:33:04.657Z,80.05
2017-08-11T05:35:32.148Z,79.41
2017-08-11T05:37:59.655Z,78.97
2017-08-11T05:40:27.222Z,78.70
2017-08-11T05:42:54.715Z,78.70
2017-08-11T05:45:22.197Z,78.84
2017-08-11T05:47:49.686Z,78.75
2017-08-11T05:50:17.238Z,78.86
2017-08-11T05:52:44.690Z,79.12
2017-08-11T05:55:12.197Z,78.80
2017-08-11T05:57:39.679Z,78.58
2017-08-11T06:00:07.162Z,78.37
2017-08-11T06:02:34.685Z,78.39
2017-08-11T06:05:02.162Z,78.18
2017-08-11T06:07:29.662Z,78.34
2017-08-11T06:09:57.144Z,78.73
2017-08-11T06:12:24.681Z,78.68
2017-08-11T06:14:52.167Z,78.75
2017-08-11T06:17:19.691Z,78.66
2017-08-11T06:19:47.165Z,78.75
2017-08-11T06:22:14.646Z,78.85
2017-08-11T06:24:42.114Z,78.91
2017-08-11T06:27:09.761Z,78.67
2017-08-11T06:29:37.234Z,79.25
2017-08-11T06:32:04.701Z,79.08
2017-08-11T06:34:32.171Z,78.34
2017-08-11T06:36:59.662Z,78.29
2017-08-11T06:39:27.156Z,78.03
2017-08-11T06:41:54.614Z,77.82
2017-08-11T06:44:22.114Z,77.62
2017-08-11T06:46:49.590Z,77.66
2017-08-11T06:49:17.091Z,77.72
2017-08-11T06:51:44.551Z,77.82
2017-08-11T06:54:12.050Z,77.66
2017-08-11T06:56:40.111Z,77.77
2017-08-11T06:59:07.600Z,77.86
2017-08-11T07:01:35.097Z,77.74
2017-08-11T07:04:02.694Z,78.05
2017-08-11T07:06:30.163Z,77.79
2017-08-11T07:08:57.676Z,77.67
2017-08-11T07:11:25.207Z,78.06
2017-08-11T07:13:52.664Z,78.20
2017-08-11T07:16:20.159Z,77.97
2017-08-11T07:18:47.630Z,77.78
2017-08-11T07:21:15.128Z,77.80
2017-08-11T07:23:42.629Z,77.68
2017-08-11T07:26:10.121Z,78.38
2017-08-11T07:28:37.655Z,78.85
2017-08-11T07:31:05.106Z,79.36
2017-08-11T07:33:32.623Z,79.49
2017-08-11T07:36:00.085Z,79.55
2017-08-11T07:38:28.179Z,79.83
2017-08-11T07:40:55.684Z,79.04
2017-08-11T07:43:24.018Z,78.45
2017-08-11T07:45:52.506Z,78.15
2017-08-11T07:48:19.967Z,77.83
2017-08-11T07:50:47.444Z,77.01
2017-08-11T07:53:14.960Z,77.68
2017-08-11T07:55:42.488Z,77.82
2017-08-11T07:58:09.996Z,77.46
2017-08-11T08:00:37.503Z,77.00
2017-08-11T08:03:04.960Z,77.05
2017-08-11T08:05:32.462Z,76.96
2017-08-11T08:07:59.947Z,76.43
2017-08-11T08:10:27.447Z,75.71
2017-08-11T08:12:54.947Z,75.34
2017-08-11T08:15:22.445Z,74.61
2017-08-11T08:17:49.955Z,74.67
2017-08-11T08:20:18.285Z,73.79
2017-08-11T08:22:45.947Z,73.56
2017-08-11T08:25:13.426Z,73.57
2017-08-11T08:27:40.936Z,73.37
2017-08-11T08:30:08.409Z,73.40
2017-08-11T08:32:38.005Z,73.29
2017-08-11T08:35:05.487Z,73.08
2017-08-11T08:37:32.989Z,72.84
2017-08-11T08:40:00.507Z,73.06
2017-08-11T08:42:28.036Z,73.08
2017-08-11T08:44:55.522Z,73.02
2017-08-11T08:47:23.034Z,72.43
2017-08-11T08:49:50.506Z,72.66
2017-08-11T08:52:18.001Z,72.69
2017-08-11T08:54:45.458Z,73.02
2017-08-11T08:57:13.606Z,72.60
2017-08-11T08:59:41.072Z,72.43
2017-08-11T09:02:08.701Z,73.27
2017-08-11T09:04:36.818Z,73.28
2017-08-11T09:07:04.326Z,72.97
2017-08-11T09:09:32.135Z,72.84
2017-08-11T09:11:59.620Z,73.36
2017-08-11T09:14:27.119Z,73.62
2017-08-11T09:16:54.605Z,73.20
2017-08-11T09:19:22.110Z,73.09
2017-08-11T09:21:49.694Z,73.04
2017-08-11T09:24:28.854Z,72.86
2017-08-11T09:27:17.018Z,73.05
2017-08-11T09:29:56.173Z,73.52
2017-08-11T09:32:35.375Z,73.78
2017-08-11T09:35:14.547Z,73.28
2017-08-11T09:37:41.597Z,73.88
2017-08-11T09:40:09.090Z,74.28
2017-08-11T09:42:36.642Z,74.34
2017-08-11T09:45:04.126Z,74.20
2017-08-11T09:47:31.643Z,73.98
2017-08-11T09:49:59.133Z,72.90
2017-08-11T09:52:26.831Z,72.31
2017-08-11T09:54:54.333Z,71.79
2017-08-11T09:57:21.892Z,70.97
2017-08-11T09:59:49.385Z,70.47
2017-08-11T10:02:16.878Z,70.90
2017-08-11T10:04:44.383Z,70.91
2017-08-11T10:07:11.897Z,70.29
2017-08-11T10:09:39.423Z,70.75
2017-08-11T10:12:06.949Z,70.21
2017-08-11T10:14:34.530Z,69.77
2017-08-11T10:17:02.035Z,70.33
2017-08-11T10:19:29.512Z,71.30
2017-08-11T10:21:57.003Z,71.76
2017-08-11T10:24:24.492Z,72.44
2017-08-11T10:26:52.980Z,72.45
2017-08-11T10:29:20.444Z,72.43
2017-08-11T10:31:47.930Z,72.15
2017-08-11T10:34:15.417Z,71.72
2017-08-11T10:36:42.905Z,71.49
2017-08-11T10:39:10.381Z,71.55
2017-08-11T10:41:37.880Z,71.29
2017-08-11T10:44:05.365Z,71.15
2017-08-11T10:46:33.051Z,71.53
2017-08-11T10:49:00.538Z,71.41
2017-08-11T10:51:28.021Z,71.37
2017-08-11T10:53:55.587Z,70.96
2017-08-11T10:56:23.147Z,70.54
2017-08-11T10:58:50.674Z,70.29
2017-08-11T11:01:18.134Z,70.93
2017-08-11T11:03:45.614Z,71.39
2017-08-11T11:06:13.120Z,71.55
2017-08-11T11:08:40.573Z,71.55
2017-08-11T11:11:08.121Z,71.16
2017-08-11T11:13:35.577Z,71.22
2017-08-11T11:16:03.058Z,71.21
2017-08-11T11:18:30.563Z,71.50
2017-08-11T11:20:58.067Z,71.47
2017-08-11T11:23:25.521Z,71.21
2017-08-11T11:25:52.999Z,71.51
2017-08-11T11:28:20.578Z,71.30
2017-08-11T11:30:48.134Z,71.47
2017-08-11T11:33:15.643Z,71.80
2017-08-11T11:35:43.141Z,72.13
2017-08-11T11:38:10.668Z,72.01
2017-08-11T11:40:38.275Z,71.77
2017-08-11T11:43:05.841Z,71.47
2017-08-11T11:45:33.393Z,71.63
2017-08-11T11:48:00.942Z,71.97
2017-08-11T11:50:28.456Z,72.17
2017-08-11T11:52:55.936Z,72.37
2017-08-11T11:55:24.457Z,72.14
2017-08-11T11:57:51.905Z,72.10
2017-08-11T12:00:19.386Z,70.99
2017-08-11T12:02:46.842Z,70.49
2017-08-11T12:05:14.352Z,70.14
2017-08-11T12:07:41.843Z,69.97
2017-08-11T12:10:09.306Z,70.49
2017-08-11T12:12:36.843Z,71.21
2017-08-11T12:15:05.137Z,71.78
2017-08-11T12:17:32.635Z,71.92
2017-08-11T12:20:00.168Z,71.97
2017-08-11T12:22:27.718Z,72.04
2017-08-11T12:24:55.227Z,72.19
2017-08-11T12:27:22.703Z,71.86
2017-08-11T12:29:50.620Z,71.89
2017-08-11T12:32:18.080Z,72.17
2017-08-11T12:34:45.738Z,71.69
2017-08-11T12:37:13.233Z,71.04
2017-08-11T12:39:40.692Z,70.35
2017-08-11T12:42:08.164Z,70.36
2017-08-11T12:44:35.659Z,70.11
2017-08-11T12:47:03.155Z,70.26
2017-08-11T12:49:30.615Z,70.43
2017-08-11T12:51:58.089Z,70.31
2017-08-11T12:54:25.595Z,70.54
2017-08-11T12:56:53.125Z,70.19
2017-08-11T12:59:21.403Z,70.65
2017-08-11T13:01:48.881Z,71.24
2017-08-11T13:04:17.343Z,71.12
2017-08-11T13:06:44.858Z,71.22
2017-08-11T13:09:12.417Z,71.47
2017-08-11T13:11:39.916Z,72.20
2017-08-11T13:14:07.427Z,72.21
2017-08-11T13:16:34.941Z,73.82
2017-08-11T13:19:02.431Z,73.14
2017-08-11T13:23:56.673Z,72.79
2017-08-11T13:26:24.157Z,72.83
2017-08-11T13:28:52.433Z,72.25
2017-08-11T13:31:19.900Z,71.71
2017-08-11T13:33:47.387Z,71.57
2017-08-11T13:36:14.891Z,71.73
2017-08-11T13:38:42.345Z,71.12
2017-08-11T13:41:09.856Z,71.00
2017-08-11T13:43:37.342Z,70.84
2017-08-11T13:46:04.827Z,70.84
2017-08-11T13:48:32.285Z,71.13
2017-08-11T13:50:59.794Z,71.58
2017-08-11T13:53:27.237Z,71.32
2017-08-11T13:55:55.259Z,71.77
2017-08-11T13:58:22.712Z,72.24
2017-08-11T14:00:50.190Z,72.71
2017-08-11T14:03:17.707Z,72.69
2017-08-11T14:05:45.177Z,72.34
2017-08-11T14:08:12.700Z,72.44
2017-08-11T14:10:40.196Z,72.21
2017-08-11T14:13:07.702Z,72.21
2017-08-11T14:15:35.152Z,72.47
2017-08-11T14:18:02.630Z,72.58
2017-08-11T14:20:30.139Z,73.12
2017-08-11T14:22:57.650Z,72.77
2017-08-11T14:25:25.158Z,73.17
2017-08-11T14:27:53.170Z,72.94
2017-08-11T14:30:20.659Z,72.44
2017-08-11T14:32:48.118Z,72.02
2017-08-11T14:35:15.633Z,72.39
2017-08-11T14:37:43.173Z,72.40
2017-08-11T14:40:10.683Z,72.74
2017-08-11T14:42:38.153Z,73.19
2017-08-11T14:45:05.654Z,73.61
2017-08-11T14:47:33.284Z,73.21
2017-08-11T14:50:00.800Z,72.69
2017-08-11T14:52:28.316Z,72.81
2017-08-11T14:54:55.826Z,72.42
2017-08-11T14:57:23.362Z,72.78
2017-08-11T14:59:50.856Z,73.08
2017-08-11T15:02:18.315Z,73.23
2017-08-11T15:04:45.869Z,73.33
2017-08-11T15:07:13.363Z,73.83
2017-08-11T15:09:40.835Z,73.90
2017-08-11T15:12:08.284Z,73.76
2017-08-11T15:14:35.769Z,73.45
2017-08-11T15:17:03.230Z,73.84
2017-08-11T15:19:30.709Z,73.95
2017-08-11T15:21:58.162Z,74.12
2017-08-11T15:24:25.673Z,73.84
2017-08-11T15:26:53.211Z,73.35
2017-08-11T15:29:20.685Z,74.54
2017-08-11T15:31:48.182Z,74.39
2017-08-11T15:34:15.658Z,74.08
2017-08-11T15:36:43.178Z,74.29
2017-08-11T15:39:10.652Z,74.18
2017-08-11T15:41:38.127Z,74.39
2017-08-11T15:44:05.614Z,74.86
2017-08-11T15:46:33.088Z,75.16
2017-08-11T15:49:00.600Z,75.12
2017-08-11T15:51:28.915Z,75.50
2017-08-11T15:53:56.398Z,75.48
2017-08-11T15:56:23.861Z,75.29
2017-08-11T15:58:51.411Z,76.92
2017-08-11T16:01:19.838Z,77.34
2017-08-11T16:03:47.324Z,77.07
2017-08-11T16:06:14.830Z,78.00
2017-08-11T16:08:42.354Z,77.99
2017-08-11T16:11:09.857Z,78.70
2017-08-11T16:13:37.359Z,78.49
2017-08-11T16:16:04.877Z,78.75
2017-08-11T16:18:32.395Z,78.99
2017-08-11T16:21:00.767Z,78.29
2017-08-11T16:23:28.273Z,77.85
2017-08-11T16:25:55.770Z,77.61
2017-08-11T16:28:23.231Z,77.54
2017-08-11T16:30:50.747Z,77.65
2017-08-11T16:33:18.266Z,77.98
2017-08-11T16:35:45.742Z,77.58
2017-08-11T16:38:13.231Z,77.46
2017-08-11T16:40:40.691Z,77.85
2017-08-11T16:43:08.165Z,77.97
2017-08-11T16:45:35.655Z,77.79
2017-08-11T16:48:03.160Z,78.28
2017-08-11T16:50:30.669Z,77.58
2017-08-11T16:52:58.176Z,77.97
2017-08-11T16:55:25.998Z,78.11
2017-08-11T16:57:53.482Z,77.88
2017-08-11T17:00:20.962Z,78.88
2017-08-11T17:02:48.467Z,79.28
2017-08-11T17:05:15.937Z,79.50
2017-08-11T17:07:43.425Z,80.35
2017-08-11T17:10:10.915Z,80.24
2017-08-11T17:12:38.371Z,79.95
2017-08-11T17:15:05.925Z,80.72
2017-08-11T17:17:33.419Z,80.25
2017-08-11T17:20:00.894Z,79.85
2017-08-11T17:22:28.374Z,80.15
2017-08-11T17:24:55.832Z,80.51
2017-08-11T17:27:23.607Z,80.28
2017-08-11T17:29:51.101Z,80.59
2017-08-11T17:32:18.590Z,80.44
2017-08-11T17:34:46.774Z,80.21
2017-08-11T17:37:14.308Z,80.80
2017-08-11T17:39:41.843Z,80.63
2017-08-11T17:42:09.310Z,80.63
2017-08-11T17:44:36.810Z,80.53
2017-08-11T17:47:04.272Z,80.77
2017-08-11T17:49:31.770Z,81.31
2017-08-11T17:51:59.241Z,81.47
2017-08-11T17:54:26.729Z,81.48
2017-08-11T17:56:54.216Z,80.36
2017-08-11T17:59:21.676Z,80.90
2017-08-11T18:01:49.181Z,81.17
2017-08-11T18:04:16.645Z,81.22
2017-08-11T18:06:44.134Z,81.16
2017-08-11T18:09:11.611Z,81.12
2017-08-11T18:11:39.114Z,81.01
2017-08-11T18:14:06.601Z,81.33
2017-08-11T18:16:34.148Z,82.51
2017-08-11T18:19:01.651Z,81.79
2017-08-11T18:21:29.138Z,82.60
2017-08-11T18:23:56.597Z,82.22
2017-08-11T18:26:24.132Z,82.43
2017-08-11T18:28:51.629Z,81.81
2017-08-11T18:31:19.105Z,81.54
2017-08-11T18:33:46.614Z,81.58
2017-08-11T18:36:14.088Z,80.67
2017-08-11T18:38:41.574Z,80.27
2017-08-11T18:41:09.078Z,79.98
2017-08-11T18:43:36.603Z,80.52
2017-08-11T18:46:04.086Z,80.44
2017-08-11T18:48:31.726Z,80.63
2017-08-11T18:50:59.208Z,80.82
2017-08-11T18:53:26.669Z,80.75
2017-08-11T18:55:54.163Z,80.37
2017-08-11T18:58:21.627Z,80.71
2017-08-11T19:00:49.129Z,81.20
2017-08-11T19:03:16.590Z,81.23
2017-08-11T19:05:44.073Z,80.97
2017-08-11T19:08:11.567Z,80.59
2017-08-11T19:10:39.061Z,80.41
2017-08-11T19:13:06.550Z,80.88
2017-08-11T19:15:34.021Z,80.51
2017-08-11T19:18:01.506Z,80.94
2017-08-11T19:20:28.974Z,81.04
2017-08-11T19:22:56.473Z,81.41
2017-08-11T19:25:23.951Z,81.48
2017-08-11T19:27:51.468Z,81.27
2017-08-11T19:30:18.935Z,80.54
2017-08-11T19:32:46.434Z,80.64
2017-08-11T19:35:13.898Z,80.97
2017-08-11T19:37:41.398Z,81.34
2017-08-11T19:40:08.864Z,81.94
2017-08-11T19:42:36.382Z,81.45
2017-08-11T19:45:03.852Z,81.87
2017-08-11T19:47:31.371Z,81.42
2017-08-11T19:49:58.840Z,81.26
2017-08-11T19:52:26.343Z,81.65
2017-08-11T19:54:53.825Z,81.66
2017-08-11T19:57:21.283Z,81.70
2017-08-11T19:59:49.562Z,81.69
2017-08-11T20:02:17.048Z,81.85
2017-08-11T20:04:44.519Z,81.98
2017-08-11T20:07:12.039Z,82.24
2017-08-11T20:09:39.503Z,82.27
2017-08-11T20:12:06.998Z,82.17
2017-08-11T20:14:34.472Z,81.79
2017-08-11T20:17:01.966Z,81.70
2017-08-11T20:19:29.440Z,81.77
2017-08-11T20:21:56.940Z,81.58
2017-08-11T20:24:24.396Z,80.60
2017-08-11T20:26:51.898Z,81.53
2017-08-11T20:29:19.380Z,80.76
2017-08-11T20:31:46.887Z,80.70
2017-08-11T20:34:14.332Z,80.21
2017-08-11T20:36:41.827Z,80.70
2017-08-11T20:39:09.299Z,81.61
2017-08-11T20:41:36.785Z,82.22
2017-08-11T20:44:04.260Z,82.94
2017-08-11T20:46:31.762Z,82.79
2017-08-11T20:48:59.260Z,82.89
2017-08-11T20:51:26.771Z,82.88
2017-08-11T20:53:54.380Z,83.98
2017-08-11T20:56:21.837Z,84.31
2017-08-11T20:58:49.365Z,84.26
2017-08-11T21:01:16.861Z,84.10
2017-08-11T21:03:44.343Z,83.59
2017-08-11T21:06:11.840Z,82.99
2017-08-11T21:08:39.307Z,82.95
2017-08-11T21:11:06.805Z,83.30
2017-08-11T21:13:34.266Z,84.03
2017-08-11T21:16:01.814Z,84.14
2017-08-11T21:18:29.279Z,84.37
2017-08-11T21:20:56.772Z,83.94
2017-08-11T21:23:24.240Z,83.66
2017-08-11T21:25:51.721Z,83.58
2017-08-11T21:28:19.188Z,83.20
2017-08-11T21:30:46.686Z,83.71
2017-08-11T21:33:14.178Z,84.10
2017-08-11T21:35:41.632Z,83.73
2017-08-11T21:38:09.113Z,83.41
2017-08-11T21:40:36.621Z,83.19
2017-08-11T21:43:04.110Z,83.23
2017-08-11T21:45:31.606Z,83.11
2017-08-11T21:47:59.071Z,83.19
2017-08-11T21:50:26.548Z,83.45
2017-08-11T21:52:54.013Z,83.20
2017-08-11T21:55:21.481Z,83.21
2017-08-11T21:57:48.945Z,83.16
2017-08-11T22:00:16.434Z,83.12
2017-08-11T22:02:43.890Z,82.76
2017-08-11T22:05:11.424Z,82.72
2017-08-11T22:07:38.902Z,82.97
2017-08-11T22:10:06.487Z,83.28
2017-08-11T22:12:33.949Z,82.97
2017-08-11T22:15:01.443Z,82.77
2017-08-11T22:17:28.934Z,83.00
2017-08-11T22:19:56.428Z,82.80
2017-08-11T22:22:23.907Z,82.43
2017-08-11T22:24:51.423Z,82.13
2017-08-11T22:27:18.890Z,82.04
2017-08-11T22:29:46.373Z,82.00
2017-08-11T22:32:13.887Z,82.11
2017-08-11T22:34:42.377Z,81.75
2017-08-11T22:37:09.871Z,81.87
2017-08-11T22:39:37.406Z,81.96
2017-08-11T22:42:04.874Z,82.07
2017-08-11T22:44:32.456Z,81.90
2017-08-11T22:46:59.905Z,81.33
2017-08-11T22:49:27.381Z,81.41
2017-08-11T22:51:54.882Z,81.31
2017-08-11T22:54:22.388Z,81.33
2017-08-11T22:56:49.878Z,81.50
2017-08-11T22:59:17.352Z,81.63
2017-08-11T23:01:44.862Z,81.43
2017-08-11T23:04:12.329Z,81.60
2017-08-11T23:06:40.290Z,81.80
2017-08-11T23:09:07.749Z,81.99
2017-08-11T23:11:35.258Z,82.15
2017-08-11T23:14:02.779Z,81.83
2017-08-11T23:16:30.253Z,82.18
2017-08-11T23:18:57.748Z,82.05
2017-08-11T23:21:25.218Z,81.89
2017-08-11T23:23:52.710Z,81.84
2017-08-11T23:26:20.185Z,82.26
2017-08-11T23:28:47.677Z,82.27
2017-08-11T23:31:15.168Z,82.66
2017-08-11T23:33:42.680Z,83.20
2017-08-11T23:36:10.164Z,82.98
2017-08-11T23:38:37.653Z,83.07
2017-08-11T23:41:05.185Z,83.44
2017-08-11T23:43:32.653Z,83.43
2017-08-11T23:46:00.140Z,82.91
2017-08-11T23:48:27.604Z,82.77
2017-08-11T23:50:55.081Z,83.30
2017-08-11T23:53:22.564Z,83.02
2017-08-11T23:55:50.013Z,83.37
2017-08-11T23:58:17.492Z,83.59
